Estación Meteorológica Peña el Pijo (Robertgarden) [ 04/19/21 05:09:46 CEST ]

Fecha Hora Presion(HPa) Temp (°C) Humedad % Rocio (°C) Viento ( m/s) Direccion Lluvia 1Hora(mm) Lluvia 24H(mm) LLuvia Total(mm)
2021-Apr-04 01:09:28 1003.700 5.6 84 3.1 - N     89.61
2021-Apr-04 02:09:38 1003.600 5.1 85 2.8 - N     89.61
2021-Apr-04 03:09:59 1003.400 4.4 86 2.2 - N     89.61
2021-Apr-04 04:10:35 1003.000 3.9 87 1.9 - N     89.61
2021-Apr-04 05:10:01 1003.000 3.6 88 1.8 - N     89.61
2021-Apr-04 06:09:36 1003.200 3.2 88 1.4 - N     89.61
2021-Apr-04 07:09:12 1003.500 3.1 89 1.4 - N     89.61
2021-Apr-04 08:09:35 1003.600 3.2 89 1.5 - N     89.61
2021-Apr-04 09:09:27 1004.500 12.2 71 7.1 - N     89.61
2021-Apr-04 10:09:41 1004.800 19.5 48 8.2 - N     89.61
2021-Apr-04 11:09:33 1004.800 22.4 38 7.3 - N     89.61
2021-Apr-04 12:09:11 1005.100 20.9 39 6.4 - N     89.61
2021-Apr-04 13:09:27 1004.700 21.8 37 6.4 - N     89.61
2021-Apr-04 14:09:22 1004.500 22.9 37 7.3 - N     89.61
2021-Apr-04 15:09:38 1004.200 22.4 39 7.7 - N     89.61
2021-Apr-04 16:09:54 1004.100 19.9 41 6.2 - N     89.61
2021-Apr-04 17:09:22 1004.000 17.9 45 5.7 - N     89.61
2021-Apr-04 18:09:12 1004.200 16.4 50 6.0 - N     89.61
2021-Apr-04 19:09:22 1004.500 15.7 49 5.0 - N     89.61
2021-Apr-04 20:09:52 1005.300 13.9 62 6.7 - N     89.61
2021-Apr-04 21:09:13 1005.900 12.4 67 6.4 - N     89.61
2021-Apr-04 22:09:40 1006.900 11.3 72 6.4 - N     89.61
2021-Apr-04 23:09:22 1007.200 9.9 77 6.0 - N     89.61

Temperatura Máxima:22°    Temperatura Mínima:
Presión Máxima:1007.200 Hpa    Presión Mínima:1003.000 Hpa


Volver